sensor_id;sensor_type;location;lat;lon;timestamp;temperature;humidity
2010;DHT22;1008;47.404;8.502;2023-06-22T00:02:01;22.60;99.90
2010;DHT22;1008;47.404;8.502;2023-06-22T00:04:28;22.60;99.90
2010;DHT22;1008;47.404;8.502;2023-06-22T00:06:55;22.60;99.90
2010;DHT22;1008;47.404;8.502;2023-06-22T00:09:23;22.60;99.90
2010;DHT22;1008;47.404;8.502;2023-06-22T00:11:50;22.70;99.90
2010;DHT22;1008;47.404;8.502;2023-06-22T00:14:17;22.70;99.90
2010;DHT22;1008;47.404;8.502;2023-06-22T00:16:43;22.40;99.90
2010;DHT22;1008;47.404;8.502;2023-06-22T00:19:14;22.50;99.90
2010;DHT22;1008;47.404;8.502;2023-06-22T00:21:41;22.40;99.90
2010;DHT22;1008;47.404;8.502;2023-06-22T00:24:08;22.40;99.90
2010;DHT22;1008;47.404;8.502;2023-06-22T00:26:36;22.40;99.90
2010;DHT22;1008;47.404;8.502;2023-06-22T00:29:03;22.40;99.90
2010;DHT22;1008;47.404;8.502;2023-06-22T00:31:30;22.40;99.90
2010;DHT22;1008;47.404;8.502;2023-06-22T00:33:57;22.50;99.90
2010;DHT22;1008;47.404;8.502;2023-06-22T00:36:23;22.60;99.90
2010;DHT22;1008;47.404;8.502;2023-06-22T00:38:52;22.60;99.90
2010;DHT22;1008;47.404;8.502;2023-06-22T00:41:18;22.60;99.90
2010;DHT22;1008;47.404;8.502;2023-06-22T00:43:46;22.70;99.90
2010;DHT22;1008;47.404;8.502;2023-06-22T00:46:13;22.90;99.90
2010;DHT22;1008;47.404;8.502;2023-06-22T00:48:41;22.90;99.90
2010;DHT22;1008;47.404;8.502;2023-06-22T00:51:10;22.90;99.90
2010;DHT22;1008;47.404;8.502;2023-06-22T00:53:37;22.90;99.90
2010;DHT22;1008;47.404;8.502;2023-06-22T00:56:04;23.00;99.90
2010;DHT22;1008;47.404;8.502;2023-06-22T00:58:32;23.10;99.90
2010;DHT22;1008;47.404;8.502;2023-06-22T01:01:00;23.00;99.90
2010;DHT22;1008;47.404;8.502;2023-06-22T01:03:31;23.00;99.90
2010;DHT22;1008;47.404;8.502;2023-06-22T01:06:04;22.90;99.90
2010;DHT22;1008;47.404;8.502;2023-06-22T01:08:40;22.90;99.90
2010;DHT22;1008;47.404;8.502;2023-06-22T01:11:12;22.80;99.90
2010;DHT22;1008;47.404;8.502;2023-06-22T01:13:45;22.60;99.90
2010;DHT22;1008;47.404;8.502;2023-06-22T01:16:18;22.70;99.90
2010;DHT22;1008;47.404;8.502;2023-06-22T01:18:48;22.70;99.90
2010;DHT22;1008;47.404;8.502;2023-06-22T01:21:19;22.70;99.90
2010;DHT22;1008;47.404;8.502;2023-06-22T01:23:55;22.70;99.90
2010;DHT22;1008;47.404;8.502;2023-06-22T01:26:32;22.50;99.90
2010;DHT22;1008;47.404;8.502;2023-06-22T01:29:04;22.60;99.90
2010;DHT22;1008;47.404;8.502;2023-06-22T01:31:35;22.60;99.90
2010;DHT22;1008;47.404;8.502;2023-06-22T01:34:04;22.60;99.90
2010;DHT22;1008;47.404;8.502;2023-06-22T01:36:32;22.70;99.90
2010;DHT22;1008;47.404;8.502;2023-06-22T01:39:00;22.70;99.90
2010;DHT22;1008;47.404;8.502;2023-06-22T01:41:29;22.50;99.90
2010;DHT22;1008;47.404;8.502;2023-06-22T01:43:56;22.30;99.90
2010;DHT22;1008;47.404;8.502;2023-06-22T01:46:25;22.40;99.90
2010;DHT22;1008;47.404;8.502;2023-06-22T01:48:52;22.50;99.90
2010;DHT22;1008;47.404;8.502;2023-06-22T01:51:19;22.50;99.90
2010;DHT22;1008;47.404;8.502;2023-06-22T01:53:46;22.50;99.90
2010;DHT22;1008;47.404;8.502;2023-06-22T01:56:14;22.50;99.90
2010;DHT22;1008;47.404;8.502;2023-06-22T01:58:50;22.40;99.90
2010;DHT22;1008;47.404;8.502;2023-06-22T02:01:26;22.20;99.90
2010;DHT22;1008;47.404;8.502;2023-06-22T02:04:02;22.20;99.90
2010;DHT22;1008;47.404;8.502;2023-06-22T02:06:33;22.20;99.90
2010;DHT22;1008;47.404;8.502;2023-06-22T02:09:06;22.30;99.90
2010;DHT22;1008;47.404;8.502;2023-06-22T02:11:35;22.40;99.90
2010;DHT22;1008;47.404;8.502;2023-06-22T02:14:03;22.50;99.90
2010;DHT22;1008;47.404;8.502;2023-06-22T02:16:32;22.60;99.90
2010;DHT22;1008;47.404;8.502;2023-06-22T02:19:01;22.50;99.90
2010;DHT22;1008;47.404;8.502;2023-06-22T02:21:29;22.30;99.90
2010;DHT22;1008;47.404;8.502;2023-06-22T02:23:56;22.40;99.90
2010;DHT22;1008;47.404;8.502;2023-06-22T02:26:24;22.30;99.90
2010;DHT22;1008;47.404;8.502;2023-06-22T02:28:51;22.30;99.90
2010;DHT22;1008;47.404;8.502;2023-06-22T02:31:18;22.30;99.90
2010;DHT22;1008;47.404;8.502;2023-06-22T02:33:47;22.30;99.90
2010;DHT22;1008;47.404;8.502;2023-06-22T02:36:14;22.20;99.90
2010;DHT22;1008;47.404;8.502;2023-06-22T02:38:41;22.30;99.90
2010;DHT22;1008;47.404;8.502;2023-06-22T02:41:11;22.10;99.90
2010;DHT22;1008;47.404;8.502;2023-06-22T02:43:38;22.10;99.90
2010;DHT22;1008;47.404;8.502;2023-06-22T02:46:05;22.20;99.90
2010;DHT22;1008;47.404;8.502;2023-06-22T02:48:32;22.20;99.90
2010;DHT22;1008;47.404;8.502;2023-06-22T02:51:00;22.20;99.90
2010;DHT22;1008;47.404;8.502;2023-06-22T02:53:27;22.20;99.90
2010;DHT22;1008;47.404;8.502;2023-06-22T02:55:53;22.20;99.90
2010;DHT22;1008;47.404;8.502;2023-06-22T02:58:20;22.20;99.90
2010;DHT22;1008;47.404;8.502;2023-06-22T03:00:47;21.90;99.90
2010;DHT22;1008;47.404;8.502;2023-06-22T03:03:14;22.00;99.90
2010;DHT22;1008;47.404;8.502;2023-06-22T03:05:40;21.80;99.90
2010;DHT22;1008;47.404;8.502;2023-06-22T03:08:08;22.00;99.90
2010;DHT22;1008;47.404;8.502;2023-06-22T03:10:35;21.90;99.90
2010;DHT22;1008;47.404;8.502;2023-06-22T03:13:02;22.00;99.90
2010;DHT22;1008;47.404;8.502;2023-06-22T03:15:29;22.00;99.90
2010;DHT22;1008;47.404;8.502;2023-06-22T03:17:57;22.10;99.90
2010;DHT22;1008;47.404;8.502;2023-06-22T03:20:24;21.90;99.90
2010;DHT22;1008;47.404;8.502;2023-06-22T03:22:52;21.70;99.90
2010;DHT22;1008;47.404;8.502;2023-06-22T03:25:20;21.90;99.90
2010;DHT22;1008;47.404;8.502;2023-06-22T03:27:47;21.80;99.90
2010;DHT22;1008;47.404;8.502;2023-06-22T03:30:15;21.70;99.90
2010;DHT22;1008;47.404;8.502;2023-06-22T03:32:41;21.80;99.90
2010;DHT22;1008;47.404;8.502;2023-06-22T03:35:09;21.80;99.90
2010;DHT22;1008;47.404;8.502;2023-06-22T03:37:38;21.90;99.90
2010;DHT22;1008;47.404;8.502;2023-06-22T03:40:06;22.00;99.90
2010;DHT22;1008;47.404;8.502;2023-06-22T03:42:35;21.90;99.90
2010;DHT22;1008;47.404;8.502;2023-06-22T03:45:02;22.00;99.90
2010;DHT22;1008;47.404;8.502;2023-06-22T03:47:29;21.90;99.90
2010;DHT22;1008;47.404;8.502;2023-06-22T03:49:56;21.80;99.90
2010;DHT22;1008;47.404;8.502;2023-06-22T03:52:23;21.90;99.90
2010;DHT22;1008;47.404;8.502;2023-06-22T03:54:50;21.90;99.90
2010;DHT22;1008;47.404;8.502;2023-06-22T03:57:17;21.90;99.90
2010;DHT22;1008;47.404;8.502;2023-06-22T03:59:45;21.90;99.90
2010;DHT22;1008;47.404;8.502;2023-06-22T04:02:12;21.80;99.90
2010;DHT22;1008;47.404;8.502;2023-06-22T04:04:39;21.90;99.90
2010;DHT22;1008;47.404;8.502;2023-06-22T04:07:06;21.80;99.90
2010;DHT22;1008;47.404;8.502;2023-06-22T04:09:33;21.50;99.90
2010;DHT22;1008;47.404;8.502;2023-06-22T04:12:01;21.70;99.90
2010;DHT22;1008;47.404;8.502;2023-06-22T04:14:27;21.80;99.90
2010;DHT22;1008;47.404;8.502;2023-06-22T04:16:56;21.80;99.90
2010;DHT22;1008;47.404;8.502;2023-06-22T04:19:22;22.00;99.90
2010;DHT22;1008;47.404;8.502;2023-06-22T04:21:49;21.90;99.90
2010;DHT22;1008;47.404;8.502;2023-06-22T04:24:16;21.90;99.90
2010;DHT22;1008;47.404;8.502;2023-06-22T04:26:43;21.70;99.90
2010;DHT22;1008;47.404;8.502;2023-06-22T04:29:11;21.50;99.90
2010;DHT22;1008;47.404;8.502;2023-06-22T04:31:38;21.80;99.90
2010;DHT22;1008;47.404;8.502;2023-06-22T04:34:07;21.50;99.90
2010;DHT22;1008;47.404;8.502;2023-06-22T04:36:35;21.50;99.90
2010;DHT22;1008;47.404;8.502;2023-06-22T04:39:05;21.60;99.90
2010;DHT22;1008;47.404;8.502;2023-06-22T04:41:32;21.50;99.90
2010;DHT22;1008;47.404;8.502;2023-06-22T04:44:11;21.50;99.90
2010;DHT22;1008;47.404;8.502;2023-06-22T04:46:38;21.40;99.90
2010;DHT22;1008;47.404;8.502;2023-06-22T04:49:07;21.80;99.90
2010;DHT22;1008;47.404;8.502;2023-06-22T04:51:37;21.40;99.90
2010;DHT22;1008;47.404;8.502;2023-06-22T04:54:04;21.80;99.90
2010;DHT22;1008;47.404;8.502;2023-06-22T04:56:31;21.90;99.90
2010;DHT22;1008;47.404;8.502;2023-06-22T04:59:01;21.90;99.90
2010;DHT22;1008;47.404;8.502;2023-06-22T05:01:28;22.20;99.90
2010;DHT22;1008;47.404;8.502;2023-06-22T05:03:56;22.10;99.90
2010;DHT22;1008;47.404;8.502;2023-06-22T05:06:28;22.20;99.90
2010;DHT22;1008;47.404;8.502;2023-06-22T05:08:55;22.20;99.90
2010;DHT22;1008;47.404;8.502;2023-06-22T05:11:23;22.30;99.90
2010;DHT22;1008;47.404;8.502;2023-06-22T05:13:50;22.20;99.90
2010;DHT22;1008;47.404;8.502;2023-06-22T05:16:16;22.20;99.90
2010;DHT22;1008;47.404;8.502;2023-06-22T05:18:50;22.30;99.90
2010;DHT22;1008;47.404;8.502;2023-06-22T05:21:17;22.30;99.90
2010;DHT22;1008;47.404;8.502;2023-06-22T05:23:45;22.30;99.90
2010;DHT22;1008;47.404;8.502;2023-06-22T05:26:12;22.50;99.90
2010;DHT22;1008;47.404;8.502;2023-06-22T05:28:39;22.50;99.90
2010;DHT22;1008;47.404;8.502;2023-06-22T05:31:06;22.50;99.90
2010;DHT22;1008;47.404;8.502;2023-06-22T05:33:32;22.40;99.90
2010;DHT22;1008;47.404;8.502;2023-06-22T05:35:59;22.50;99.90
2010;DHT22;1008;47.404;8.502;2023-06-22T05:38:26;22.70;99.90
2010;DHT22;1008;47.404;8.502;2023-06-22T05:40:54;22.60;99.90
2010;DHT22;1008;47.404;8.502;2023-06-22T05:43:21;22.70;99.90
2010;DHT22;1008;47.404;8.502;2023-06-22T05:45:48;22.80;99.90
2010;DHT22;1008;47.404;8.502;2023-06-22T05:48:15;23.00;99.90
2010;DHT22;1008;47.404;8.502;2023-06-22T05:50:42;23.00;99.90
2010;DHT22;1008;47.404;8.502;2023-06-22T05:53:08;23.20;99.90
2010;DHT22;1008;47.404;8.502;2023-06-22T05:55:35;23.00;99.90
2010;DHT22;1008;47.404;8.502;2023-06-22T05:58:03;22.90;99.90
2010;DHT22;1008;47.404;8.502;2023-06-22T06:00:30;22.90;99.90
2010;DHT22;1008;47.404;8.502;2023-06-22T06:02:57;23.00;99.90
2010;DHT22;1008;47.404;8.502;2023-06-22T06:05:29;23.20;99.90
2010;DHT22;1008;47.404;8.502;2023-06-22T06:07:55;23.20;99.90
2010;DHT22;1008;47.404;8.502;2023-06-22T06:10:22;23.30;99.90
2010;DHT22;1008;47.404;8.502;2023-06-22T06:12:49;23.20;99.90
2010;DHT22;1008;47.404;8.502;2023-06-22T06:15:17;23.40;99.90
2010;DHT22;1008;47.404;8.502;2023-06-22T06:17:48;23.30;99.90
2010;DHT22;1008;47.404;8.502;2023-06-22T06:20:15;23.40;99.90
2010;DHT22;1008;47.404;8.502;2023-06-22T06:22:42;23.40;99.90
2010;DHT22;1008;47.404;8.502;2023-06-22T06:25:09;23.50;99.90
2010;DHT22;1008;47.404;8.502;2023-06-22T06:27:41;23.40;99.90
2010;DHT22;1008;47.404;8.502;2023-06-22T06:30:09;23.60;99.90
2010;DHT22;1008;47.404;8.502;2023-06-22T06:32:37;23.70;99.90
2010;DHT22;1008;47.404;8.502;2023-06-22T06:35:05;23.90;99.90
2010;DHT22;1008;47.404;8.502;2023-06-22T06:37:35;24.00;99.90
2010;DHT22;1008;47.404;8.502;2023-06-22T06:40:03;24.10;99.90
2010;DHT22;1008;47.404;8.502;2023-06-22T06:42:32;23.90;99.90
2010;DHT22;1008;47.404;8.502;2023-06-22T06:44:59;24.10;99.90
2010;DHT22;1008;47.404;8.502;2023-06-22T06:47:25;24.20;99.90
2010;DHT22;1008;47.404;8.502;2023-06-22T06:49:54;24.40;99.90
2010;DHT22;1008;47.404;8.502;2023-06-22T06:52:20;24.50;99.90
2010;DHT22;1008;47.404;8.502;2023-06-22T06:54:47;24.40;99.90
2010;DHT22;1008;47.404;8.502;2023-06-22T06:57:14;24.30;99.90
2010;DHT22;1008;47.404;8.502;2023-06-22T06:59:41;24.50;99.90
2010;DHT22;1008;47.404;8.502;2023-06-22T07:02:08;24.70;99.90
2010;DHT22;1008;47.404;8.502;2023-06-22T07:04:34;24.90;99.90
2010;DHT22;1008;47.404;8.502;2023-06-22T07:07:03;25.10;99.90
2010;DHT22;1008;47.404;8.502;2023-06-22T07:09:30;25.30;99.90
2010;DHT22;1008;47.404;8.502;2023-06-22T07:11:56;25.40;99.90
2010;DHT22;1008;47.404;8.502;2023-06-22T07:14:23;25.40;99.90
2010;DHT22;1008;47.404;8.502;2023-06-22T07:16:50;25.30;99.90
2010;DHT22;1008;47.404;8.502;2023-06-22T07:19:24;25.00;99.90
2010;DHT22;1008;47.404;8.502;2023-06-22T07:21:51;24.70;99.90
2010;DHT22;1008;47.404;8.502;2023-06-22T07:24:19;24.00;99.90
2010;DHT22;1008;47.404;8.502;2023-06-22T07:26:46;23.60;99.90
2010;DHT22;1008;47.404;8.502;2023-06-22T07:29:13;23.30;99.90
2010;DHT22;1008;47.404;8.502;2023-06-22T07:31:40;23.10;99.90
2010;DHT22;1008;47.404;8.502;2023-06-22T07:34:07;23.00;99.90
2010;DHT22;1008;47.404;8.502;2023-06-22T07:36:34;22.90;99.90
2010;DHT22;1008;47.404;8.502;2023-06-22T07:39:01;22.80;99.90
2010;DHT22;1008;47.404;8.502;2023-06-22T07:41:30;22.70;99.90
2010;DHT22;1008;47.404;8.502;2023-06-22T07:43:57;22.70;99.90
2010;DHT22;1008;47.404;8.502;2023-06-22T07:46:24;22.80;99.90
2010;DHT22;1008;47.404;8.502;2023-06-22T07:48:50;22.90;99.90
2010;DHT22;1008;47.404;8.502;2023-06-22T07:51:18;23.00;99.90
2010;DHT22;1008;47.404;8.502;2023-06-22T07:53:44;23.10;99.90
2010;DHT22;1008;47.404;8.502;2023-06-22T07:56:11;23.40;99.90
2010;DHT22;1008;47.404;8.502;2023-06-22T07:58:40;23.40;99.90
2010;DHT22;1008;47.404;8.502;2023-06-22T08:01:06;23.60;99.90
2010;DHT22;1008;47.404;8.502;2023-06-22T08:03:33;24.00;99.90
2010;DHT22;1008;47.404;8.502;2023-06-22T08:06:00;24.40;99.90
2010;DHT22;1008;47.404;8.502;2023-06-22T08:08:27;24.50;99.90
2010;DHT22;1008;47.404;8.502;2023-06-22T08:10:53;24.70;99.90
2010;DHT22;1008;47.404;8.502;2023-06-22T08:13:20;25.10;99.90
2010;DHT22;1008;47.404;8.502;2023-06-22T08:15:48;25.40;99.90
2010;DHT22;1008;47.404;8.502;2023-06-22T08:18:15;25.50;99.90
2010;DHT22;1008;47.404;8.502;2023-06-22T08:20:42;25.70;99.90
2010;DHT22;1008;47.404;8.502;2023-06-22T08:23:09;25.70;99.90
2010;DHT22;1008;47.404;8.502;2023-06-22T08:25:36;25.60;99.90
2010;DHT22;1008;47.404;8.502;2023-06-22T08:28:04;25.80;99.90
2010;DHT22;1008;47.404;8.502;2023-06-22T08:30:31;25.50;99.90
2010;DHT22;1008;47.404;8.502;2023-06-22T08:32:59;25.40;99.90
2010;DHT22;1008;47.404;8.502;2023-06-22T08:35:25;25.50;99.90
2010;DHT22;1008;47.404;8.502;2023-06-22T08:37:52;25.90;99.90
2010;DHT22;1008;47.404;8.502;2023-06-22T08:40:21;26.10;99.90
2010;DHT22;1008;47.404;8.502;2023-06-22T08:42:48;26.30;99.90
2010;DHT22;1008;47.404;8.502;2023-06-22T08:45:15;26.20;99.90
2010;DHT22;1008;47.404;8.502;2023-06-22T08:47:42;26.20;99.90
2010;DHT22;1008;47.404;8.502;2023-06-22T08:50:11;26.20;99.90
2010;DHT22;1008;47.404;8.502;2023-06-22T08:52:39;26.50;99.90
2010;DHT22;1008;47.404;8.502;2023-06-22T08:55:08;26.70;99.90
2010;DHT22;1008;47.404;8.502;2023-06-22T08:57:35;26.80;99.90
2010;DHT22;1008;47.404;8.502;2023-06-22T09:00:05;27.10;99.90
2010;DHT22;1008;47.404;8.502;2023-06-22T09:02:36;27.20;99.90
2010;DHT22;1008;47.404;8.502;2023-06-22T09:05:06;27.10;99.90
2010;DHT22;1008;47.404;8.502;2023-06-22T09:07:34;26.80;99.90
2010;DHT22;1008;47.404;8.502;2023-06-22T09:10:01;26.80;99.90
2010;DHT22;1008;47.404;8.502;2023-06-22T09:12:30;27.00;99.90
2010;DHT22;1008;47.404;8.502;2023-06-22T09:14:58;27.20;99.90
2010;DHT22;1008;47.404;8.502;2023-06-22T09:17:26;27.30;99.90
2010;DHT22;1008;47.404;8.502;2023-06-22T09:19:53;27.40;99.90
2010;DHT22;1008;47.404;8.502;2023-06-22T09:22:20;27.20;99.90
2010;DHT22;1008;47.404;8.502;2023-06-22T09:24:48;27.30;99.90
2010;DHT22;1008;47.404;8.502;2023-06-22T09:27:15;27.50;99.90
2010;DHT22;1008;47.404;8.502;2023-06-22T09:29:41;27.30;99.90
2010;DHT22;1008;47.404;8.502;2023-06-22T09:32:08;27.50;99.90
2010;DHT22;1008;47.404;8.502;2023-06-22T09:34:35;27.20;99.90
2010;DHT22;1008;47.404;8.502;2023-06-22T09:37:02;27.40;99.90
2010;DHT22;1008;47.404;8.502;2023-06-22T09:39:29;27.70;99.90
2010;DHT22;1008;47.404;8.502;2023-06-22T09:41:58;27.70;99.90
2010;DHT22;1008;47.404;8.502;2023-06-22T09:44:25;27.70;99.90
2010;DHT22;1008;47.404;8.502;2023-06-22T09:46:52;27.80;99.90
2010;DHT22;1008;47.404;8.502;2023-06-22T09:49:20;27.50;99.90
2010;DHT22;1008;47.404;8.502;2023-06-22T09:51:47;27.40;99.90
2010;DHT22;1008;47.404;8.502;2023-06-22T09:54:15;27.50;99.90
2010;DHT22;1008;47.404;8.502;2023-06-22T09:56:41;27.70;99.90
2010;DHT22;1008;47.404;8.502;2023-06-22T09:59:10;27.80;99.90
2010;DHT22;1008;47.404;8.502;2023-06-22T10:01:36;28.00;99.90
2010;DHT22;1008;47.404;8.502;2023-06-22T10:04:03;28.00;99.90
2010;DHT22;1008;47.404;8.502;2023-06-22T10:06:30;27.40;99.90
2010;DHT22;1008;47.404;8.502;2023-06-22T10:08:57;27.90;99.90
2010;DHT22;1008;47.404;8.502;2023-06-22T10:11:23;28.10;99.90
2010;DHT22;1008;47.404;8.502;2023-06-22T10:13:54;28.20;99.90
2010;DHT22;1008;47.404;8.502;2023-06-22T10:16:24;28.60;99.90
2010;DHT22;1008;47.404;8.502;2023-06-22T10:18:53;28.20;99.90
2010;DHT22;1008;47.404;8.502;2023-06-22T10:21:20;28.20;99.90
2010;DHT22;1008;47.404;8.502;2023-06-22T10:23:47;28.00;99.90
2010;DHT22;1008;47.404;8.502;2023-06-22T10:26:14;27.90;99.90
2010;DHT22;1008;47.404;8.502;2023-06-22T10:28:40;28.30;99.90
2010;DHT22;1008;47.404;8.502;2023-06-22T10:31:07;28.10;99.90
2010;DHT22;1008;47.404;8.502;2023-06-22T10:33:35;27.90;99.90
2010;DHT22;1008;47.404;8.502;2023-06-22T10:36:02;28.10;99.90
2010;DHT22;1008;47.404;8.502;2023-06-22T10:38:29;28.20;99.90
2010;DHT22;1008;47.404;8.502;2023-06-22T10:40:56;28.40;99.90
2010;DHT22;1008;47.404;8.502;2023-06-22T10:43:22;28.40;99.90
2010;DHT22;1008;47.404;8.502;2023-06-22T10:45:49;28.70;99.90
2010;DHT22;1008;47.404;8.502;2023-06-22T10:48:16;29.00;99.90
2010;DHT22;1008;47.404;8.502;2023-06-22T10:50:44;28.90;99.90
2010;DHT22;1008;47.404;8.502;2023-06-22T10:53:11;29.00;99.90
2010;DHT22;1008;47.404;8.502;2023-06-22T10:55:37;29.30;99.90
2010;DHT22;1008;47.404;8.502;2023-06-22T10:58:04;29.30;99.90
2010;DHT22;1008;47.404;8.502;2023-06-22T11:00:31;29.40;99.90
2010;DHT22;1008;47.404;8.502;2023-06-22T11:02:57;29.30;99.90
2010;DHT22;1008;47.404;8.502;2023-06-22T11:05:24;29.30;99.90
2010;DHT22;1008;47.404;8.502;2023-06-22T11:07:52;29.40;99.90
2010;DHT22;1008;47.404;8.502;2023-06-22T11:10:19;29.40;99.90
2010;DHT22;1008;47.404;8.502;2023-06-22T11:12:46;29.40;99.90
2010;DHT22;1008;47.404;8.502;2023-06-22T11:15:13;29.30;99.90
2010;DHT22;1008;47.404;8.502;2023-06-22T11:17:40;29.20;99.90
2010;DHT22;1008;47.404;8.502;2023-06-22T11:20:07;29.10;99.90
2010;DHT22;1008;47.404;8.502;2023-06-22T11:22:36;29.10;99.90
2010;DHT22;1008;47.404;8.502;2023-06-22T11:25:07;29.10;99.90
2010;DHT22;1008;47.404;8.502;2023-06-22T11:27:34;29.00;99.90
2010;DHT22;1008;47.404;8.502;2023-06-22T11:30:01;28.70;99.90
2010;DHT22;1008;47.404;8.502;2023-06-22T11:32:28;28.60;99.90
2010;DHT22;1008;47.404;8.502;2023-06-22T11:34:55;28.50;99.90
2010;DHT22;1008;47.404;8.502;2023-06-22T11:37:22;28.50;99.90
2010;DHT22;1008;47.404;8.502;2023-06-22T11:39:48;28.50;99.90
2010;DHT22;1008;47.404;8.502;2023-06-22T11:42:16;28.70;99.90
2010;DHT22;1008;47.404;8.502;2023-06-22T11:44:43;28.50;99.90
2010;DHT22;1008;47.404;8.502;2023-06-22T11:47:10;28.80;99.90
2010;DHT22;1008;47.404;8.502;2023-06-22T11:49:37;28.90;99.90
2010;DHT22;1008;47.404;8.502;2023-06-22T11:52:04;29.00;99.90
2010;DHT22;1008;47.404;8.502;2023-06-22T11:54:31;29.10;99.90
2010;DHT22;1008;47.404;8.502;2023-06-22T11:56:57;28.90;99.90
2010;DHT22;1008;47.404;8.502;2023-06-22T11:59:25;28.70;99.90
2010;DHT22;1008;47.404;8.502;2023-06-22T12:01:52;28.50;99.90
2010;DHT22;1008;47.404;8.502;2023-06-22T12:04:19;28.70;99.90
2010;DHT22;1008;47.404;8.502;2023-06-22T12:06:46;29.00;99.90
2010;DHT22;1008;47.404;8.502;2023-06-22T12:09:13;29.00;99.90
2010;DHT22;1008;47.404;8.502;2023-06-22T12:11:40;29.10;99.90
2010;DHT22;1008;47.404;8.502;2023-06-22T12:14:06;29.00;99.90
2010;DHT22;1008;47.404;8.502;2023-06-22T12:16:34;28.80;99.90
2010;DHT22;1008;47.404;8.502;2023-06-22T12:19:01;28.90;99.90
2010;DHT22;1008;47.404;8.502;2023-06-22T12:21:28;28.80;99.90
2010;DHT22;1008;47.404;8.502;2023-06-22T12:23:54;28.90;99.90
2010;DHT22;1008;47.404;8.502;2023-06-22T12:26:21;29.00;99.90
2010;DHT22;1008;47.404;8.502;2023-06-22T12:28:48;29.00;99.90
2010;DHT22;1008;47.404;8.502;2023-06-22T12:31:15;29.10;99.90
2010;DHT22;1008;47.404;8.502;2023-06-22T12:33:43;29.10;99.90
2010;DHT22;1008;47.404;8.502;2023-06-22T12:36:10;28.80;99.90
2010;DHT22;1008;47.404;8.502;2023-06-22T12:38:36;28.70;99.90
2010;DHT22;1008;47.404;8.502;2023-06-22T12:41:03;28.80;99.90
2010;DHT22;1008;47.404;8.502;2023-06-22T12:43:30;28.70;99.90
2010;DHT22;1008;47.404;8.502;2023-06-22T12:45:57;28.70;99.90
2010;DHT22;1008;47.404;8.502;2023-06-22T12:48:25;28.70;99.90
2010;DHT22;1008;47.404;8.502;2023-06-22T12:50:53;29.00;99.90
2010;DHT22;1008;47.404;8.502;2023-06-22T12:53:20;28.70;99.90
2010;DHT22;1008;47.404;8.502;2023-06-22T12:55:48;28.60;99.90
2010;DHT22;1008;47.404;8.502;2023-06-22T12:58:14;28.50;99.90
2010;DHT22;1008;47.404;8.502;2023-06-22T13:00:42;28.80;99.90
2010;DHT22;1008;47.404;8.502;2023-06-22T13:03:08;29.30;99.90
2010;DHT22;1008;47.404;8.502;2023-06-22T13:05:35;29.30;99.90
2010;DHT22;1008;47.404;8.502;2023-06-22T13:08:04;28.90;99.90
2010;DHT22;1008;47.404;8.502;2023-06-22T13:10:30;28.70;99.90
2010;DHT22;1008;47.404;8.502;2023-06-22T13:12:57;28.60;99.90
2010;DHT22;1008;47.404;8.502;2023-06-22T13:15:26;28.40;99.90
2010;DHT22;1008;47.404;8.502;2023-06-22T13:17:53;28.40;99.90
2010;DHT22;1008;47.404;8.502;2023-06-22T13:20:20;28.40;99.90
2010;DHT22;1008;47.404;8.502;2023-06-22T13:22:47;28.50;99.90
2010;DHT22;1008;47.404;8.502;2023-06-22T13:25:15;28.40;99.90
2010;DHT22;1008;47.404;8.502;2023-06-22T13:27:44;28.60;99.90
2010;DHT22;1008;47.404;8.502;2023-06-22T13:30:12;28.60;99.90
2010;DHT22;1008;47.404;8.502;2023-06-22T13:32:38;28.60;99.90
2010;DHT22;1008;47.404;8.502;2023-06-22T13:35:07;28.50;99.90
2010;DHT22;1008;47.404;8.502;2023-06-22T13:37:34;28.10;99.90
2010;DHT22;1008;47.404;8.502;2023-06-22T13:40:01;28.10;99.90
2010;DHT22;1008;47.404;8.502;2023-06-22T13:42:32;28.40;99.90
2010;DHT22;1008;47.404;8.502;2023-06-22T13:44:58;28.20;99.90
2010;DHT22;1008;47.404;8.502;2023-06-22T13:47:25;28.30;99.90
2010;DHT22;1008;47.404;8.502;2023-06-22T13:49:52;28.00;99.90
2010;DHT22;1008;47.404;8.502;2023-06-22T13:52:18;27.80;99.90
2010;DHT22;1008;47.404;8.502;2023-06-22T13:54:45;27.60;99.90
2010;DHT22;1008;47.404;8.502;2023-06-22T13:57:12;27.50;99.90
2010;DHT22;1008;47.404;8.502;2023-06-22T13:59:40;27.40;99.90
2010;DHT22;1008;47.404;8.502;2023-06-22T14:02:07;27.30;99.90
2010;DHT22;1008;47.404;8.502;2023-06-22T14:04:33;27.20;99.90
2010;DHT22;1008;47.404;8.502;2023-06-22T14:07:00;27.20;99.90
2010;DHT22;1008;47.404;8.502;2023-06-22T14:09:27;27.30;99.90
2010;DHT22;1008;47.404;8.502;2023-06-22T14:11:54;26.90;99.90
2010;DHT22;1008;47.404;8.502;2023-06-22T14:14:21;26.90;99.90
2010;DHT22;1008;47.404;8.502;2023-06-22T14:16:49;27.00;99.90
2010;DHT22;1008;47.404;8.502;2023-06-22T14:19:17;27.00;99.90
2010;DHT22;1008;47.404;8.502;2023-06-22T14:21:44;26.80;99.90
2010;DHT22;1008;47.404;8.502;2023-06-22T14:24:10;26.50;99.90
2010;DHT22;1008;47.404;8.502;2023-06-22T14:26:37;26.30;99.90
2010;DHT22;1008;47.404;8.502;2023-06-22T14:29:04;25.90;99.90
2010;DHT22;1008;47.404;8.502;2023-06-22T14:31:30;25.50;99.90
2010;DHT22;1008;47.404;8.502;2023-06-22T14:33:59;25.40;99.90
2010;DHT22;1008;47.404;8.502;2023-06-22T14:36:26;25.50;99.90
2010;DHT22;1008;47.404;8.502;2023-06-22T14:38:53;25.60;99.90
2010;DHT22;1008;47.404;8.502;2023-06-22T14:41:19;25.70;99.90
2010;DHT22;1008;47.404;8.502;2023-06-22T14:43:47;25.80;99.90
2010;DHT22;1008;47.404;8.502;2023-06-22T14:46:14;26.00;99.90
2010;DHT22;1008;47.404;8.502;2023-06-22T14:48:41;26.00;99.90
2010;DHT22;1008;47.404;8.502;2023-06-22T14:51:13;25.60;99.90
2010;DHT22;1008;47.404;8.502;2023-06-22T14:53:40;26.00;99.90
2010;DHT22;1008;47.404;8.502;2023-06-22T14:56:06;26.20;99.90
2010;DHT22;1008;47.404;8.502;2023-06-22T14:58:33;26.20;99.90
2010;DHT22;1008;47.404;8.502;2023-06-22T15:01:01;26.60;99.90
2010;DHT22;1008;47.404;8.502;2023-06-22T15:03:28;26.70;99.90
2010;DHT22;1008;47.404;8.502;2023-06-22T15:05:58;26.60;99.90
2010;DHT22;1008;47.404;8.502;2023-06-22T15:08:26;26.40;99.90
2010;DHT22;1008;47.404;8.502;2023-06-22T15:10:53;26.60;99.90
2010;DHT22;1008;47.404;8.502;2023-06-22T15:13:21;26.60;99.90
2010;DHT22;1008;47.404;8.502;2023-06-22T15:15:48;26.50;99.90
2010;DHT22;1008;47.404;8.502;2023-06-22T15:18:15;26.70;99.90
2010;DHT22;1008;47.404;8.502;2023-06-22T15:20:42;26.50;99.90
2010;DHT22;1008;47.404;8.502;2023-06-22T15:23:11;26.30;99.90
2010;DHT22;1008;47.404;8.502;2023-06-22T15:25:39;26.50;99.90
2010;DHT22;1008;47.404;8.502;2023-06-22T15:28:07;26.40;99.90
2010;DHT22;1008;47.404;8.502;2023-06-22T15:30:34;26.30;99.90
2010;DHT22;1008;47.404;8.502;2023-06-22T15:33:01;26.40;99.90
2010;DHT22;1008;47.404;8.502;2023-06-22T15:35:28;25.80;99.90
2010;DHT22;1008;47.404;8.502;2023-06-22T15:37:54;25.70;99.90
2010;DHT22;1008;47.404;8.502;2023-06-22T15:40:21;25.60;99.90
2010;DHT22;1008;47.404;8.502;2023-06-22T15:42:51;25.40;99.90
2010;DHT22;1008;47.404;8.502;2023-06-22T15:45:18;25.50;99.90
2010;DHT22;1008;47.404;8.502;2023-06-22T15:47:44;25.40;99.90
2010;DHT22;1008;47.404;8.502;2023-06-22T15:50:11;25.50;99.90
2010;DHT22;1008;47.404;8.502;2023-06-22T15:52:39;25.50;99.90
2010;DHT22;1008;47.404;8.502;2023-06-22T15:55:07;25.50;99.90
2010;DHT22;1008;47.404;8.502;2023-06-22T15:57:35;25.50;99.90
2010;DHT22;1008;47.404;8.502;2023-06-22T16:00:04;25.40;99.90
2010;DHT22;1008;47.404;8.502;2023-06-22T16:02:33;25.30;99.90
2010;DHT22;1008;47.404;8.502;2023-06-22T16:05:00;25.20;99.90